createdAt,value
2018-06-14T00:01:58.177Z,10.63
2018-06-14T00:04:26.746Z,7.60
2018-06-14T00:06:55.283Z,10.20
2018-06-14T00:09:24.095Z,7.27
2018-06-14T00:11:52.689Z,6.27
2018-06-14T00:14:21.260Z,5.93
2018-06-14T00:16:49.897Z,8.67
2018-06-14T00:19:18.848Z,4.57
2018-06-14T00:21:48.911Z,11.23
2018-06-14T00:24:18.156Z,6.57
2018-06-14T00:26:46.639Z,6.03
2018-06-14T00:29:15.329Z,7.10
2018-06-14T00:31:43.841Z,9.20
2018-06-14T00:34:12.374Z,7.33
2018-06-14T00:36:40.866Z,7.27
2018-06-14T00:39:09.665Z,11.60
2018-06-14T00:41:38.202Z,7.60
2018-06-14T00:44:06.786Z,9.33
2018-06-14T00:46:35.762Z,8.80
2018-06-14T00:49:04.405Z,8.17
2018-06-14T00:51:32.986Z,6.77
2018-06-14T00:54:01.559Z,5.33
2018-06-14T00:56:36.777Z,8.90
2018-06-14T00:59:05.367Z,6.43
2018-06-14T01:01:34.036Z,13.63
2018-06-14T01:04:02.631Z,9.83
2018-06-14T01:06:31.186Z,6.00
2018-06-14T01:08:59.740Z,7.10
2018-06-14T01:11:28.350Z,9.73
2018-06-14T01:13:56.948Z,5.63
2018-06-14T01:16:25.574Z,5.80
2018-06-14T01:18:54.520Z,7.43
2018-06-14T01:21:23.156Z,9.67
2018-06-14T01:23:51.747Z,6.83
2018-06-14T01:26:20.377Z,8.40
2018-06-14T01:28:48.952Z,5.93
2018-06-14T01:31:17.595Z,7.43
2018-06-14T01:33:46.086Z,6.37
2018-06-14T01:36:14.661Z,4.87
2018-06-14T01:38:43.276Z,5.73
2018-06-14T01:41:11.893Z,7.13
2018-06-14T01:43:40.518Z,6.03
2018-06-14T01:46:09.115Z,5.57
2018-06-14T01:48:37.743Z,6.80
2018-06-14T01:51:06.328Z,6.80
2018-06-14T01:53:35.094Z,6.67
2018-06-14T01:56:03.725Z,5.97
2018-06-14T01:58:32.352Z,6.93
2018-06-14T02:01:01.580Z,8.30
2018-06-14T02:03:30.420Z,6.73
2018-06-14T02:05:58.937Z,12.00
2018-06-14T02:08:27.702Z,6.10
2018-06-14T02:10:56.356Z,5.37
2018-06-14T02:13:25.034Z,7.13
2018-06-14T02:15:53.760Z,7.57
2018-06-14T02:18:22.347Z,9.53
2018-06-14T02:20:51.194Z,5.87
2018-06-14T02:23:19.795Z,9.97
2018-06-14T02:25:48.361Z,10.90
2018-06-14T02:28:17.014Z,6.57
2018-06-14T02:30:45.519Z,6.73
2018-06-14T02:33:14.250Z,7.30
2018-06-14T02:35:42.923Z,5.77
2018-06-14T02:38:11.624Z,8.07
2018-06-14T02:40:40.142Z,13.23
2018-06-14T02:43:08.645Z,10.83
2018-06-14T02:45:37.146Z,9.63
2018-06-14T02:48:05.888Z,9.40
2018-06-14T02:50:34.458Z,7.47
2018-06-14T02:53:03.043Z,8.27
2018-06-14T02:55:31.641Z,11.37
2018-06-14T02:58:00.194Z,6.90
2018-06-14T03:00:28.712Z,7.93
2018-06-14T03:02:57.234Z,10.57
2018-06-14T03:05:25.803Z,11.37
2018-06-14T03:07:54.410Z,11.50
2018-06-14T03:10:22.929Z,14.43
2018-06-14T03:12:51.453Z,11.67
2018-06-14T03:15:19.989Z,7.60
2018-06-14T03:17:48.514Z,9.43
2018-06-14T03:20:21.559Z,7.97
2018-06-14T03:22:50.198Z,9.70
2018-06-14T03:25:18.763Z,10.63
2018-06-14T03:27:47.591Z,7.27
2018-06-14T03:30:16.154Z,8.63
2018-06-14T03:32:44.706Z,11.37
2018-06-14T03:35:13.278Z,11.20
2018-06-14T03:37:41.791Z,8.67
2018-06-14T03:40:10.367Z,10.47
2018-06-14T03:42:43.018Z,9.10
2018-06-14T03:45:16.707Z,7.27
2018-06-14T03:47:46.351Z,14.27
2018-06-14T03:50:15.206Z,7.90
2018-06-14T03:52:43.709Z,8.10
2018-06-14T03:55:12.281Z,7.17
2018-06-14T03:57:40.807Z,10.33
2018-06-14T04:00:09.416Z,7.70
2018-06-14T04:02:37.962Z,13.33
2018-06-14T04:05:06.644Z,12.50
2018-06-14T04:07:35.365Z,11.40
2018-06-14T04:10:04.208Z,9.50
2018-06-14T04:12:32.823Z,9.53
2018-06-14T04:15:01.373Z,8.97
2018-06-14T04:17:29.873Z,13.37
2018-06-14T04:19:58.407Z,13.47
2018-06-14T04:22:27.087Z,9.30
2018-06-14T04:24:55.629Z,16.07
2018-06-14T04:27:24.400Z,14.23
2018-06-14T04:29:52.961Z,12.40
2018-06-14T04:32:21.503Z,9.33
2018-06-14T04:34:50.068Z,11.23
2018-06-14T04:37:18.622Z,11.47
2018-06-14T04:39:47.245Z,12.83
2018-06-14T04:42:15.797Z,8.93
2018-06-14T04:44:44.948Z,18.27
2018-06-14T04:47:13.487Z,11.67
2018-06-14T04:49:42.152Z,11.43
2018-06-14T04:52:10.884Z,20.00
2018-06-14T04:54:39.380Z,8.77
2018-06-14T04:57:07.951Z,13.40
2018-06-14T04:59:36.578Z,14.63
2018-06-14T05:02:05.396Z,14.97
2018-06-14T05:04:34.103Z,8.00
2018-06-14T05:07:02.626Z,9.90
2018-06-14T05:09:31.210Z,12.53
2018-06-14T05:11:59.759Z,9.73
2018-06-14T05:14:28.340Z,10.07
2018-06-14T05:16:56.947Z,11.63
2018-06-14T05:19:25.562Z,20.97
2018-06-14T05:21:54.124Z,12.73
2018-06-14T05:24:23.169Z,11.60
2018-06-14T05:26:51.703Z,11.23
2018-06-14T05:29:20.268Z,10.20
2018-06-14T05:31:48.859Z,13.13
2018-06-14T05:34:17.378Z,18.87
2018-06-14T05:36:45.865Z,16.60
2018-06-14T05:39:14.492Z,12.40
2018-06-14T05:41:43.087Z,11.37
2018-06-14T05:44:11.558Z,15.07
2018-06-14T05:46:40.091Z,16.63
2018-06-14T05:49:08.670Z,10.07
2018-06-14T05:51:37.126Z,10.30
2018-06-14T05:54:05.802Z,13.33
2018-06-14T05:56:34.260Z,12.50
2018-06-14T05:59:03.166Z,8.57
2018-06-14T06:01:31.825Z,8.63
2018-06-14T06:04:00.358Z,7.50
2018-06-14T06:06:28.905Z,8.83
2018-06-14T06:08:57.391Z,5.27
2018-06-14T06:11:25.864Z,13.37
2018-06-14T06:13:54.434Z,18.83
2018-06-14T06:16:23.050Z,14.93
2018-06-14T06:18:51.590Z,7.03
2018-06-14T06:21:20.139Z,5.57
2018-06-14T06:23:48.714Z,15.00
2018-06-14T06:26:17.326Z,4.87
2018-06-14T06:28:45.936Z,9.10
2018-06-14T06:31:14.510Z,11.50
2018-06-14T06:33:43.075Z,8.13
2018-06-14T06:36:11.684Z,6.50
2018-06-14T06:38:40.280Z,8.87
2018-06-14T06:41:08.841Z,5.70
2018-06-14T06:43:37.374Z,7.97
2018-06-14T06:46:05.936Z,6.33
2018-06-14T06:48:34.568Z,6.60
2018-06-14T06:51:03.045Z,5.87
2018-06-14T06:53:31.576Z,5.30
2018-06-14T06:56:00.191Z,9.60
2018-06-14T06:58:28.882Z,8.97
2018-06-14T07:00:57.460Z,8.10
2018-06-14T07:03:25.991Z,8.37
2018-06-14T07:05:54.594Z,3.80
2018-06-14T07:08:23.065Z,5.60
2018-06-14T07:10:51.643Z,6.73
2018-06-14T07:13:20.125Z,8.93
2018-06-14T07:15:48.767Z,8.17
2018-06-14T07:18:17.589Z,6.37
2018-06-14T07:20:46.080Z,4.83
2018-06-14T07:23:14.704Z,8.33
2018-06-14T07:25:43.629Z,8.73
2018-06-14T07:28:12.246Z,5.60
2018-06-14T07:30:40.843Z,9.03
2018-06-14T07:33:09.524Z,9.00
2018-06-14T07:35:38.159Z,13.50
2018-06-14T07:38:06.746Z,5.07
2018-06-14T07:40:35.330Z,7.03
2018-06-14T07:43:03.833Z,4.47
2018-06-14T07:45:32.347Z,5.37
2018-06-14T07:48:00.921Z,4.90
2018-06-14T07:50:29.506Z,6.63
2018-06-14T07:52:58.190Z,3.17
2018-06-14T07:55:26.753Z,10.83
2018-06-14T07:57:55.357Z,5.53
2018-06-14T08:00:23.947Z,7.47
2018-06-14T08:02:52.432Z,4.73
2018-06-14T08:05:21.039Z,3.40
2018-06-14T08:07:49.691Z,4.80
2018-06-14T08:10:18.437Z,4.07
2018-06-14T08:12:47.044Z,6.20
2018-06-14T08:15:15.607Z,5.20
2018-06-14T08:17:44.148Z,8.30
2018-06-14T08:20:12.818Z,5.03
2018-06-14T08:22:41.625Z,11.17
2018-06-14T08:25:10.196Z,4.37
2018-06-14T08:27:38.803Z,12.17
2018-06-14T08:30:07.422Z,7.17
2018-06-14T08:32:36.123Z,14.33
2018-06-14T08:35:04.827Z,4.43
2018-06-14T08:37:33.355Z,5.17
2018-06-14T08:40:02.027Z,7.83
2018-06-14T08:42:30.686Z,8.53
2018-06-14T08:44:59.270Z,4.83
2018-06-14T08:47:27.782Z,5.77
2018-06-14T08:49:56.447Z,5.00
2018-06-14T08:52:25.087Z,7.07
2018-06-14T08:54:53.616Z,4.53
2018-06-14T08:57:22.210Z,5.67
2018-06-14T08:59:50.808Z,5.53
2018-06-14T09:02:19.390Z,9.77
2018-06-14T09:04:48.208Z,6.17
2018-06-14T09:07:16.782Z,8.27
2018-06-14T09:09:45.779Z,9.33
2018-06-14T09:12:14.577Z,7.30
2018-06-14T09:14:43.188Z,6.77
2018-06-14T09:17:11.689Z,5.23
2018-06-14T09:19:40.262Z,6.43
2018-06-14T09:22:08.848Z,8.30
2018-06-14T09:24:37.478Z,8.03
2018-06-14T09:27:06.041Z,6.67
2018-06-14T09:29:34.647Z,10.40
2018-06-14T09:32:03.384Z,5.47
2018-06-14T09:34:31.989Z,6.13
2018-06-14T09:37:00.608Z,10.17
2018-06-14T09:39:29.208Z,7.40
2018-06-14T09:41:57.726Z,9.53
2018-06-14T09:44:26.292Z,7.17
2018-06-14T09:46:54.974Z,7.57
2018-06-14T09:49:23.527Z,8.07
2018-06-14T09:51:52.150Z,8.03
2018-06-14T09:54:20.685Z,8.47
2018-06-14T09:56:49.311Z,7.53
2018-06-14T09:59:17.860Z,8.53
2018-06-14T10:01:46.544Z,9.47
2018-06-14T10:04:15.322Z,8.57
2018-06-14T10:06:43.852Z,12.77
2018-06-14T10:09:13.190Z,5.97
2018-06-14T10:11:41.798Z,9.10
2018-06-14T10:14:10.366Z,7.43
2018-06-14T10:16:38.999Z,7.23
2018-06-14T10:19:07.529Z,7.37
2018-06-14T10:21:36.187Z,4.80
2018-06-14T10:24:04.741Z,8.33
2018-06-14T10:26:33.630Z,5.33
2018-06-14T10:29:02.247Z,5.13
2018-06-14T10:31:30.886Z,7.20
2018-06-14T10:33:59.450Z,11.00
2018-06-14T10:36:28.135Z,12.63
2018-06-14T10:38:56.798Z,7.00
2018-06-14T10:41:25.339Z,6.77
2018-06-14T10:43:54.019Z,8.43
2018-06-14T10:46:22.633Z,4.93
2018-06-14T10:48:51.105Z,8.30
2018-06-14T10:51:19.617Z,5.83
2018-06-14T10:53:48.134Z,4.77
2018-06-14T10:56:16.669Z,4.53
2018-06-14T10:58:45.216Z,5.80
2018-06-14T11:01:13.835Z,11.37
2018-06-14T11:03:42.369Z,10.20
2018-06-14T11:06:10.916Z,4.73
2018-06-14T11:08:39.429Z,5.57
2018-06-14T11:11:08.001Z,5.37
2018-06-14T11:13:36.544Z,5.30
2018-06-14T11:16:05.198Z,5.47
2018-06-14T11:18:33.767Z,9.27
2018-06-14T11:21:02.309Z,3.77
2018-06-14T11:23:30.884Z,4.33
2018-06-14T11:25:59.467Z,8.17
2018-06-14T11:28:28.050Z,8.73
2018-06-14T11:30:56.722Z,4.10
2018-06-14T11:33:25.289Z,6.13
2018-06-14T11:35:53.829Z,7.20
2018-06-14T11:38:22.721Z,4.27
2018-06-14T11:40:51.303Z,8.37
2018-06-14T11:43:19.842Z,5.27
2018-06-14T11:45:48.515Z,5.37
2018-06-14T11:48:17.122Z,5.57
2018-06-14T11:50:45.551Z,7.33
2018-06-14T11:53:14.019Z,3.77
2018-06-14T11:55:42.540Z,5.40
2018-06-14T11:58:11.079Z,5.30
2018-06-14T12:00:39.618Z,4.60
2018-06-14T12:03:08.274Z,10.97
2018-06-14T12:05:36.730Z,8.33
2018-06-14T12:08:05.281Z,3.37
2018-06-14T12:10:33.839Z,7.00
2018-06-14T12:13:02.442Z,7.53
2018-06-14T12:15:31.043Z,7.10
2018-06-14T12:17:59.575Z,7.10
2018-06-14T12:20:28.119Z,4.67
2018-06-14T12:22:56.610Z,4.57
2018-06-14T12:25:25.136Z,4.93
2018-06-14T12:27:53.708Z,4.53
2018-06-14T12:30:22.508Z,3.10
2018-06-14T12:32:51.052Z,5.37
2018-06-14T12:35:19.627Z,3.33
2018-06-14T12:37:48.288Z,5.23
2018-06-14T12:40:16.757Z,3.27
2018-06-14T12:42:45.330Z,4.27
2018-06-14T12:45:13.815Z,4.40
2018-06-14T12:47:42.296Z,5.47
2018-06-14T12:50:10.814Z,3.13
2018-06-14T12:52:39.301Z,5.53
2018-06-14T12:55:07.929Z,4.77
2018-06-14T12:57:36.449Z,4.80
2018-06-14T13:00:05.109Z,3.83
2018-06-14T13:02:33.697Z,7.40
2018-06-14T13:05:02.282Z,4.10
2018-06-14T13:07:30.818Z,6.73
2018-06-14T13:09:59.262Z,2.80
2018-06-14T13:12:28.075Z,5.10
2018-06-14T13:14:56.645Z,4.10
2018-06-14T13:17:25.160Z,3.73
2018-06-14T13:19:53.667Z,6.13
2018-06-14T13:22:22.193Z,4.90
2018-06-14T13:24:50.944Z,4.97
2018-06-14T13:27:19.711Z,4.07
2018-06-14T13:29:48.312Z,4.97
2018-06-14T13:32:16.881Z,5.73
2018-06-14T13:34:45.405Z,4.40
2018-06-14T13:37:13.967Z,4.07
2018-06-14T13:39:42.593Z,5.47
2018-06-14T13:42:11.255Z,3.67
2018-06-14T13:44:39.856Z,13.27
2018-06-14T13:47:08.338Z,7.83
2018-06-14T13:49:36.985Z,3.30
2018-06-14T13:52:05.643Z,4.00
2018-06-14T13:54:34.159Z,9.37
2018-06-14T13:57:02.760Z,3.30
2018-06-14T13:59:31.336Z,4.47
2018-06-14T14:01:59.848Z,6.13
2018-06-14T14:04:28.386Z,4.10
2018-06-14T14:07:01.014Z,4.60
2018-06-14T14:09:29.577Z,4.20
2018-06-14T14:11:58.078Z,7.10
2018-06-14T14:14:26.538Z,4.30
2018-06-14T14:16:55.119Z,5.43
2018-06-14T14:19:23.926Z,4.53
2018-06-14T14:21:52.598Z,5.17
2018-06-14T14:24:21.813Z,6.07
2018-06-14T14:26:50.436Z,10.23
2018-06-14T14:29:19.108Z,5.83
2018-06-14T14:31:47.997Z,5.77
2018-06-14T14:34:16.644Z,3.33
2018-06-14T14:36:45.182Z,6.37
2018-06-14T14:39:14.038Z,9.80
2018-06-14T14:41:43.287Z,4.13
2018-06-14T14:44:11.965Z,6.53
2018-06-14T14:46:40.719Z,3.83
2018-06-14T14:49:09.274Z,3.37
2018-06-14T14:51:37.855Z,8.80
2018-06-14T14:54:06.819Z,2.77
2018-06-14T14:56:37.781Z,6.53
2018-06-14T14:59:06.374Z,3.17
2018-06-14T15:01:35.261Z,7.77
2018-06-14T15:04:04.120Z,6.80
2018-06-14T15:06:33.202Z,4.40
2018-06-14T15:09:02.063Z,4.00
2018-06-14T15:11:30.577Z,5.23
2018-06-14T15:13:59.608Z,6.10
2018-06-14T15:16:28.791Z,8.73
2018-06-14T15:18:57.305Z,3.63
2018-06-14T15:21:25.831Z,5.30
2018-06-14T15:23:54.496Z,5.93
2018-06-14T15:26:23.723Z,4.17
2018-06-14T15:28:53.408Z,4.57
2018-06-14T15:31:22.117Z,2.47
2018-06-14T15:33:51.071Z,7.60
2018-06-14T15:36:20.192Z,4.93
2018-06-14T15:38:49.229Z,11.27
2018-06-14T15:41:17.740Z,3.40
2018-06-14T15:43:46.323Z,4.80
2018-06-14T15:46:15.095Z,4.77
2018-06-14T15:48:43.679Z,3.17
2018-06-14T15:51:12.685Z,4.33
2018-06-14T15:53:41.190Z,5.57
2018-06-14T15:56:26.184Z,3.33
2018-06-14T15:58:54.868Z,7.53
2018-06-14T16:01:23.830Z,4.90
2018-06-14T16:03:52.477Z,6.53
2018-06-14T16:06:21.130Z,4.10
2018-06-14T16:08:50.000Z,3.70
2018-06-14T16:11:18.857Z,6.90
2018-06-14T16:13:47.661Z,4.40
2018-06-14T16:16:16.404Z,2.70
2018-06-14T16:18:45.233Z,6.63
2018-06-14T16:21:13.865Z,3.97
2018-06-14T16:23:42.609Z,8.30
2018-06-14T16:26:11.605Z,4.93
2018-06-14T16:28:40.253Z,3.43
2018-06-14T16:31:08.976Z,5.27
2018-06-14T16:33:37.961Z,3.03
2018-06-14T16:36:06.628Z,3.33
2018-06-14T16:38:35.742Z,4.63
2018-06-14T16:41:05.046Z,4.47
2018-06-14T16:43:34.486Z,5.60
2018-06-14T16:46:03.439Z,5.33
2018-06-14T16:48:32.084Z,4.03
2018-06-14T16:51:00.993Z,2.27
2018-06-14T16:53:29.784Z,3.63
2018-06-14T16:55:58.361Z,2.90
2018-06-14T16:58:27.258Z,6.07
2018-06-14T17:00:55.993Z,5.17
2018-06-14T17:03:25.573Z,3.87
2018-06-14T17:05:54.240Z,3.93
2018-06-14T17:08:22.839Z,2.50
2018-06-14T17:10:51.504Z,5.13
2018-06-14T17:13:20.236Z,4.43
2018-06-14T17:15:49.257Z,3.97
2018-06-14T17:18:17.738Z,5.70
2018-06-14T17:20:46.317Z,5.27
2018-06-14T17:23:14.995Z,5.73
2018-06-14T17:25:43.622Z,2.57
2018-06-14T17:28:12.197Z,6.03
2018-06-14T17:30:41.086Z,7.33
2018-06-14T17:33:09.637Z,3.83
2018-06-14T17:35:38.390Z,4.67
2018-06-14T17:38:07.097Z,6.40
2018-06-14T17:40:35.630Z,3.67
2018-06-14T17:43:04.635Z,4.13
2018-06-14T17:45:33.229Z,9.63
2018-06-14T17:48:01.867Z,3.87
2018-06-14T17:50:30.400Z,4.63
2018-06-14T17:52:58.957Z,2.83
2018-06-14T17:55:27.557Z,4.47
2018-06-14T17:57:56.646Z,7.43
2018-06-14T18:00:25.311Z,3.77
2018-06-14T18:02:54.104Z,3.37
2018-06-14T18:05:22.816Z,5.53
2018-06-14T18:07:51.684Z,5.33
2018-06-14T18:10:20.466Z,5.07
2018-06-14T18:12:49.114Z,3.20
2018-06-14T18:15:17.663Z,6.53
2018-06-14T18:17:46.276Z,4.90
2018-06-14T18:20:15.133Z,6.40
2018-06-14T18:22:43.862Z,10.53
2018-06-14T18:25:12.396Z,4.73
2018-06-14T18:27:41.062Z,6.10
2018-06-14T18:30:10.209Z,4.93
2018-06-14T18:32:38.805Z,2.53
2018-06-14T18:35:07.291Z,5.83
2018-06-14T18:37:35.950Z,5.67
2018-06-14T18:40:04.625Z,5.47
2018-06-14T18:42:33.338Z,3.20
2018-06-14T18:45:01.869Z,5.60
2018-06-14T18:47:30.412Z,4.30
2018-06-14T18:49:59.096Z,6.10
2018-06-14T18:52:27.610Z,4.67
2018-06-14T18:54:56.377Z,4.07
2018-06-14T18:57:25.212Z,5.23
2018-06-14T18:59:54.153Z,6.60
2018-06-14T19:02:22.672Z,3.87
2018-06-14T19:04:51.413Z,4.70
2018-06-14T19:07:20.053Z,6.00
2018-06-14T19:09:49.005Z,5.70
2018-06-14T19:12:18.196Z,7.00
2018-06-14T19:14:46.931Z,6.07
2018-06-14T19:17:15.544Z,6.60
2018-06-14T19:19:44.234Z,8.23
2018-06-14T19:22:12.928Z,9.13
2018-06-14T19:24:41.475Z,15.63
2018-06-14T19:27:10.020Z,15.37
2018-06-14T19:29:38.948Z,13.17
2018-06-14T19:32:07.970Z,11.00
2018-06-14T19:34:37.268Z,14.10
2018-06-14T19:37:06.659Z,15.03
2018-06-14T19:39:35.576Z,16.77
2018-06-14T19:42:04.531Z,12.90
2018-06-14T19:44:33.014Z,11.77
2018-06-14T19:47:02.414Z,14.03
2018-06-14T19:49:31.314Z,11.60
2018-06-14T19:52:00.123Z,10.57
2018-06-14T19:54:28.647Z,13.73
2018-06-14T19:56:57.223Z,14.33
2018-06-14T19:59:26.514Z,14.87
2018-06-14T20:01:55.484Z,12.97
2018-06-14T20:04:24.679Z,16.53
2018-06-14T20:06:53.372Z,20.07
2018-06-14T20:09:22.333Z,16.83
2018-06-14T20:11:51.351Z,13.40
2018-06-14T20:14:19.906Z,17.90
2018-06-14T20:16:48.740Z,15.23
2018-06-14T20:19:20.146Z,15.63
2018-06-14T20:21:49.199Z,19.43
2018-06-14T20:24:18.105Z,18.63
2018-06-14T20:26:46.819Z,19.73
2018-06-14T20:29:15.598Z,17.20
2018-06-14T20:31:44.711Z,20.23
2018-06-14T20:34:13.780Z,17.03
2018-06-14T20:36:42.585Z,16.73
2018-06-14T20:39:12.896Z,19.27
2018-06-14T20:41:41.653Z,20.90
2018-06-14T20:44:11.146Z,17.23
2018-06-14T20:46:39.703Z,20.37
2018-06-14T20:49:08.433Z,23.03
2018-06-14T20:51:36.975Z,18.43
2018-06-14T20:54:05.635Z,19.80
2018-06-14T20:56:34.889Z,19.10
2018-06-14T20:59:04.287Z,22.30
2018-06-14T21:01:33.167Z,22.17
2018-06-14T21:04:02.485Z,20.23
2018-06-14T21:06:32.718Z,17.77
2018-06-14T21:09:08.925Z,19.23
2018-06-14T21:11:44.179Z,23.17
2018-06-14T21:14:12.676Z,22.47
2018-06-14T21:16:42.996Z,22.17
2018-06-14T21:19:15.751Z,25.47
2018-06-14T21:21:44.596Z,23.33
2018-06-14T21:24:13.141Z,24.03
2018-06-14T21:26:41.606Z,26.30
2018-06-14T21:29:10.219Z,20.37
2018-06-14T21:31:38.699Z,25.47
2018-06-14T21:34:08.055Z,23.43
2018-06-14T21:36:36.909Z,22.43
2018-06-14T21:39:09.048Z,19.87
2018-06-14T21:41:38.047Z,22.07
2018-06-14T21:44:07.610Z,24.20
2018-06-14T21:46:36.398Z,21.50
2018-06-14T21:49:06.236Z,20.73
2018-06-14T21:51:34.708Z,21.07
2018-06-14T21:54:03.285Z,21.13
2018-06-14T21:56:31.800Z,23.00
2018-06-14T21:59:00.338Z,21.40
2018-06-14T22:01:28.849Z,20.33
2018-06-14T22:03:59.591Z,20.37
2018-06-14T22:06:29.518Z,19.10
2018-06-14T22:08:58.244Z,22.23
2018-06-14T22:11:26.989Z,23.87
2018-06-14T22:13:55.629Z,23.57
2018-06-14T22:16:24.917Z,21.33
2018-06-14T22:18:53.724Z,21.30
2018-06-14T22:21:22.577Z,21.50
2018-06-14T22:23:51.584Z,22.37
2018-06-14T22:26:20.236Z,23.00
2018-06-14T22:28:49.079Z,24.20
2018-06-14T22:31:17.713Z,22.47
2018-06-14T22:33:57.410Z,27.63
2018-06-14T22:36:26.196Z,22.10
2018-06-14T22:38:55.001Z,25.60
2018-06-14T22:41:23.791Z,24.23
2018-06-14T22:43:52.619Z,24.07
2018-06-14T22:46:21.504Z,24.40
2018-06-14T22:48:50.313Z,31.50
2018-06-14T22:51:20.563Z,27.67
2018-06-14T22:53:49.171Z,25.37
2018-06-14T22:56:17.831Z,27.57
2018-06-14T22:58:47.166Z,23.57
2018-06-14T23:01:35.172Z,24.43
2018-06-14T23:04:04.389Z,26.53
2018-06-14T23:06:33.203Z,22.07
2018-06-14T23:09:21.458Z,20.73
2018-06-14T23:11:50.132Z,22.30
2018-06-14T23:14:18.932Z,21.63
2018-06-14T23:16:47.440Z,21.83
2018-06-14T23:19:16.080Z,18.83
2018-06-14T23:21:44.855Z,19.80
2018-06-14T23:24:13.452Z,21.70
2018-06-14T23:26:42.341Z,21.33
2018-06-14T23:29:11.023Z,21.33
2018-06-14T23:31:39.838Z,19.60
2018-06-14T23:34:08.599Z,21.53
2018-06-14T23:36:37.464Z,19.97
2018-06-14T23:39:07.010Z,24.77
2018-06-14T23:41:35.758Z,24.07
2018-06-14T23:44:04.316Z,21.67
2018-06-14T23:46:32.877Z,19.67
2018-06-14T23:49:01.454Z,20.33
2018-06-14T23:51:29.938Z,19.10
2018-06-14T23:53:58.464Z,18.87
2018-06-14T23:56:27.081Z,18.37
2018-06-14T23:58:55.577Z,20.07
